• Join FlightAware (Why Join?)
  • Login
  • US Flag 
 
07:14AM EST


 

Airport Tracker/Info


-or-


 

Live Flight TrackerFlight Track Log ✈ N2299W ✈ 24-May-2013 ✈ KFMY - KVQQ

Flight Track Log - Related Links

Times and Time Zones

All times are in EDT time to prevent confusion due to time zone crossing. See the N2299W flight status page for this flight to view local times or setup timezone preferences in your user account.

Time Position Orientation Groundspeed Altitude Reporting Facility
EDT Latitude Longitude Course Direction KTS MPH feet Rate Location/Type
03:33PM 26.7483 -81.8667 North  Level FlightAware Approximate
03:34PM 26.7759 -81.8667 North  Level FlightAware Approximate
03:35PM 26.8036 -81.8667 North  Level FlightAware Approximate
03:36PM 26.8312 -81.8675 357° North  Level FlightAware Approximate
03:37PM 26.8587 -81.8691 357° North  Level FlightAware Approximate
03:37PM 26.7436 -81.9436 357° North 76 87 4,000  Level Miami Center
03:38PM 26.8863 -81.8708 357° North  Level FlightAware Approximate
03:38PM 26.7642 -81.9467 352° North 76 87 4,200  Level Miami Center
03:39PM 26.9139 -81.8724 357° North  Level FlightAware Approximate
03:39PM 26.7853 -81.9475 358° North 76 87 4,400  Level Miami Center
03:40PM 26.9415 -81.8740 357° North  Level FlightAware Approximate
03:40PM 26.8061 -81.9486 357° North 76 87 4,400  Level Miami Center
03:41PM 26.9691 -81.8756 357° North  Level FlightAware Approximate
03:41PM 26.8331 -81.9497 358° North 84 97 4,600  Level Miami Center
03:42PM 26.9966 -81.8772 357° North  Level FlightAware Approximate
03:42PM 26.8561 -81.9483 North 84 97 4,900  Level Miami Center
03:43PM 27.0242 -81.8789 357° North  Level FlightAware Approximate
03:43PM 26.8769 -81.9492 358° North 79 91 5,100  Level Miami Center
03:44PM 26.8978 -81.9525 352° North 79 91 5,300 60 Climbing Miami Center
03:45PM 26.9186 -81.9533 358° North 79 91 5,300 60 Level Miami Center
03:46PM 26.9414 -81.9544 358° North 79 91 5,500 240 Climbing Miami Center
03:47PM 26.9622 -81.9553 358° North 84 97 5,800 240 Climbing Miami Center
03:48PM 26.9831 -81.9564 357° North 84 97 6,000 60 Climbing Miami Center
03:49PM 27.0103 -81.9575 358° North 84 97 6,000 -60 Level Miami Center
03:50PM 27.0372 -81.9608 354° North 89 102 5,900 -60 Descending Miami Center
03:51PM 27.0664 -81.9622 358° North 94 108 5,900  Level Miami Center
03:52PM 27.0936 -81.9633 358° North 94 108 5,900  Level Miami Center
03:53PM 27.1206 -81.9647 357° North 99 114 6,000  Climbing Miami Center
03:54PM 27.1478 -81.9636 North 99 114 6,000  Level Miami Center
03:55PM 27.1747 -81.9647 358° North 99 114 6,000  Level Miami Center
03:56PM 27.2061 -81.9683 354° North 104 120 6,000 -60 Level Miami Center
03:57PM 27.2353 -81.9672 North 104 120 5,900 -300 Descending Miami Center
03:58PM 27.2667 -81.9664 North 104 120 5,500 -540 Descending Miami Center
03:59PM 27.2978 -81.9700 354° North 104 120 4,900 -600 Descending Miami Center
04:00PM 27.3331 -81.9739 354° North 110 127 4,300 -540 Descending Miami Center
04:01PM 27.3644 -81.9753 358° North 110 127 3,900 -240 Descending Miami Center
04:02PM 27.3933 -81.9814 349° North 105 121 3,900  Level Miami Center
04:03PM 27.4228 -81.9803 North 105 121 3,900  Level Miami Center
04:04PM 27.4497 -81.9814 358° North 100 115 4,000  Climbing Miami Center
04:05PM 27.4789 -81.9828 358° North 100 115 4,000  Level Miami Center
04:06PM 27.5081 -81.9842 358° North 105 121 4,000 -60 Level Miami Center
04:07PM 27.5372 -81.9831 North 105 121 3,900  Descending Miami Center
04:08PM 27.5667 -81.9819 North 105 121 4,000  Climbing Miami Center
04:09PM 27.5936 -81.9881 349° North 105 121 3,900 -60 Descending Miami Center
04:10PM 27.6247 -81.9894 358° North 105 121 3,900  Level Miami Center
04:11PM 27.6517 -81.9953 349° North 105 121 3,900  Level Miami Center
04:12PM 27.6789 -81.9964 358° North 105 121 3,900  Level Miami Center
04:13PM 27.7058 -82.0000 353° North 105 121 4,000  Climbing Miami Center
04:14PM 27.7347 -82.0036 354° North 100 115 3,900 -60 Descending Miami Center
04:15PM 27.7597 -82.0047 358° North 100 115 3,900  Level Miami Center
04:16PM 27.7847 -82.0058 358° North 94 108 3,900 60 Level Miami Center
04:17PM 27.8139 -82.0097 353° North 89 102 4,100  Climbing Miami Center
04:18PM 27.8431 -82.0108 358° North 95 109 4,000 -180 Descending Miami Center
04:19PM 27.8722 -82.0100 North 100 115 3,800 -120 Descending Miami Center
04:20PM 27.8833 -82.0167 332° Northwest 100 115 3,900 120 Climbing Tampa TRACON
04:21PM 27.9167 -82.0167 360° North 99 114 4,000  Climbing Tampa TRACON
04:22PM 27.9500 -82.0167 360° North 108 124 4,000  Level Tampa TRACON
04:23PM 27.9833 -82.0167 360° North 100 115 4,000  Level Tampa TRACON
04:24PM 28.0000 -82.0167 360° North 103 119 4,100 -60 Climbing Tampa TRACON
04:25PM 28.0333 -82.0167 360° North 100 115 3,900 -60 Descending Tampa TRACON
04:26PM 28.0500 -82.0167 360° North 93 107 4,000  Climbing Tampa TRACON
04:27PM 28.0833 -82.0333 336° Northwest 100 115 4,000  Level Tampa TRACON
04:28PM 28.1167 -82.0333 360° North 103 119 4,000  Level Tampa TRACON
04:29PM 28.1333 -82.0333 360° North 97 112 4,000  Level Tampa TRACON
04:30PM 28.1667 -82.0500 336° Northwest 101 116 4,000  Level Tampa TRACON
04:31PM 28.2000 -82.0500 360° North 101 116 4,000 -60 Level Tampa TRACON
04:32PM 28.2333 -82.0500 360° North 100 115 3,900  Descending Tampa TRACON
04:33PM 28.2500 -82.0667 319° Northwest 101 116 4,000  Climbing Tampa TRACON
04:34PM 28.2833 -82.0667 360° North 99 114 4,000  Level Tampa TRACON
04:35PM 28.3000 -82.0667 360° North 94 108 4,000  Level Tampa TRACON
04:36PM 28.3333 -82.0833 336° Northwest 96 110 4,000  Level Tampa TRACON
04:37PM 28.3667 -82.0833 360° North 100 115 4,000 -60 Level Tampa TRACON
04:38PM 28.3833 -82.0833 360° North 99 114 3,900 -60 Descending Tampa TRACON
04:39PM 28.4167 -82.1000 336° Northwest 96 110 3,900 60 Level Tampa TRACON
04:40PM 28.4333 -82.1000 360° North 95 109 4,100  Climbing Tampa TRACON
04:41PM 28.4667 -82.1000 360° North 100 115 3,900 -120 Descending Tampa TRACON
04:42PM 28.5000 -82.1000 360° North 101 116 3,900 60 Level Tampa TRACON
04:43PM 28.5189 -82.1106 334° Northwest 100 115 4,100 60 Climbing Jacksonville Center
04:44PM 28.5358 -82.1153 346° North 107 123 4,000 -120 Descending Jacksonville Center
04:45PM 28.5650 -82.1197 352° North 107 123 4,000  Level Jacksonville Center
04:46PM 28.5922 -82.1217 356° North 98 113 4,000  Level Jacksonville Center
04:47PM 28.6233 -82.1264 352° North 106 122 4,000  Level Jacksonville Center
04:48PM 28.6506 -82.1283 356° North 101 116 4,000  Level Jacksonville Center
04:49PM 28.6778 -82.1353 347° North 98 113 4,000  Level Jacksonville Center
04:50PM 28.7050 -82.1397 352° North 103 119 4,000  Level Jacksonville Center
04:51PM 28.7342 -82.1492 344° North 101 116 4,000  Level Jacksonville Center
04:52PM 28.7633 -82.1561 348° North 101 116 4,000  Level Jacksonville Center
04:53PM 28.7906 -82.1581 356° North 99 114 4,000  Level Jacksonville Center
04:54PM 28.8197 -82.1556 North 109 125 4,000  Level Jacksonville Center
04:55PM 28.8489 -82.1483 12° North 109 125 4,000  Level Jacksonville Center
04:56PM 28.8781 -82.1433 North 106 122 4,000 -60 Level Jacksonville Center
04:57PM 28.9072 -82.1361 12° North 102 117 3,900  Descending Jacksonville Center
04:58PM 28.9322 -82.1286 15° North 97 112 4,000  Climbing Jacksonville Center
04:59PM 28.9656 -82.1189 14° North 114 131 4,000  Level Jacksonville Center
05:00PM 28.9947 -82.1117 12° North 118 136 4,000 -60 Level Jacksonville Center
05:01PM 29.0261 -82.1042 12° North 106 122 3,900  Descending Jacksonville Center
05:02PM 29.0553 -82.0992 North 103 119 4,000  Climbing Jacksonville Center
05:03PM 29.0844 -82.0967 North 98 113 4,000  Level Jacksonville Center
05:04PM 29.1117 -82.0892 14° North 102 117 4,000  Level Jacksonville Center
05:05PM 29.1428 -82.0867 North 107 123 4,000  Level Jacksonville Center
05:06PM 29.1700 -82.0792 14° North 102 117 4,000  Level Jacksonville Center
05:07PM 29.1992 -82.0742 North 105 121 4,000  Level Jacksonville Center
05:08PM 29.2306 -82.0669 11° North 106 122 4,100 -60 Climbing Jacksonville Center
05:09PM 29.2597 -82.0642 North 111 128 3,900 -60 Descending Jacksonville Center
05:10PM 29.2867 -82.0569 13° North 105 121 4,000  Climbing Jacksonville Center
05:11PM 29.3222 -82.0542 North 110 127 4,000  Level Jacksonville Center
05:12PM 29.3514 -82.0467 13° North 110 127 4,000  Level Jacksonville Center
05:13PM 29.3786 -82.0442 North 106 122 4,000  Level Jacksonville Center
05:14PM 29.4097 -82.0367 12° North 105 121 4,000  Level Jacksonville Center
05:15PM 29.4411 -82.0294 11° North 109 125 4,000  Level Jacksonville Center
05:16PM 29.4681 -82.0219 14° North 106 122 4,000  Level Jacksonville Center
05:17PM 29.5014 -82.0169 North 113 130 4,000  Level Jacksonville Center
05:18PM 29.5286 -82.0119 North 107 123 4,000  Level Jacksonville Center
05:19PM 29.5578 -82.0044 13° North 105 121 4,000  Level Jacksonville Center
05:20PM 29.5911 -81.9969 11° North 111 128 4,000  Level Jacksonville Center
05:21PM 29.6244 -81.9919 North 113 130 4,000  Level Jacksonville Center
05:22PM 29.6494 -81.9869 10° North 102 117 4,000 -60 Level Jacksonville Center
05:23PM 29.6786 -81.9817 North 105 121 3,900 -120 Descending Jacksonville Center
05:24PM 29.7119 -81.9767 North 116 133 3,800 -240 Descending Jacksonville Center
05:25PM 29.7433 -81.9644 19° North 116 133 3,500 -300 Descending Jacksonville Center
05:26PM 29.7767 -81.9544 15° North 127 146 3,200 -240 Descending Jacksonville Center
05:27PM 29.8119 -81.9447 13° North 114 131 3,000 -120 Descending Jacksonville Center
05:28PM 29.8350 -81.9372 16° North 100 115 3,000  Level Jacksonville Center
05:29PM 29.8664 -81.9369 360° North 102 117 3,000  Level Jacksonville Center
05:30PM 29.8956 -81.9294 13° North 105 121 3,000  Level Jacksonville Center
05:31PM 29.9225 -81.9269 North 105 121 3,000  Level Jacksonville Center
05:32PM 29.9517 -81.9194 13° North 108 124 3,100 -60 Climbing Jacksonville Center
05:33PM 29.9831 -81.9117 12° North 112 129 2,900 -120 Descending Jacksonville Center
05:34PM 30.0142 -81.9042 12° North 108 124 2,900 -120 Level Jacksonville Center
05:35PM 30.0475 -81.8967 11° North 108 124 2,700 -480 Descending Jacksonville Center
05:36PM 30.0789 -81.8844 19° North 122 140 2,000 -600 Descending Jacksonville Center
05:37PM 30.1122 -81.8792 North 121 139 1,500 -480 Descending Jacksonville Center
05:39PM 30.1478 -81.8789 360° North 105 121 1,100 -360 Descending Jacksonville Center
05:40PM 30.1706 -81.8786 North 99 114 800 -360 Descending Jacksonville Center
05:41PM 30.1971 -81.8717 13° North  Level FlightAware Approximate
05:48PM 30.2167 -81.8667 19° North  Level FlightAware Approximate
05:49PM 30.2188 -81.8772 19° North  Level Estimated